sensor_id;sensor_type;location;lat;lon;timestamp;temperature;humidity
32895;DHT22;19251;49.484;8.260;2022-09-09T00:03:48;19.80;25.30
32895;DHT22;19251;49.484;8.260;2022-09-09T00:09:10;19.50;25.00
32895;DHT22;19251;49.484;8.260;2022-09-09T00:14:37;19.90;25.70
32895;DHT22;19251;49.484;8.260;2022-09-09T00:19:56;20.10;25.70
32895;DHT22;19251;49.484;8.260;2022-09-09T00:25:12;20.00;25.70
32895;DHT22;19251;49.484;8.260;2022-09-09T00:30:27;20.00;25.80
32895;DHT22;19251;49.484;8.260;2022-09-09T00:35:38;20.00;25.80
32895;DHT22;19251;49.484;8.260;2022-09-09T00:51:46;19.90;26.30
32895;DHT22;19251;49.484;8.260;2022-09-09T00:57:31;19.90;26.20
32895;DHT22;19251;49.484;8.260;2022-09-09T01:02:41;19.90;26.40
32895;DHT22;19251;49.484;8.260;2022-09-09T01:07:48;19.80;27.00
32895;DHT22;19251;49.484;8.260;2022-09-09T01:12:58;19.80;26.40
32895;DHT22;19251;49.484;8.260;2022-09-09T01:18:07;19.80;26.50
32895;DHT22;19251;49.484;8.260;2022-09-09T01:28:39;19.70;27.00
32895;DHT22;19251;49.484;8.260;2022-09-09T01:33:42;19.60;27.20
32895;DHT22;19251;49.484;8.260;2022-09-09T01:38:44;19.70;27.00
32895;DHT22;19251;49.484;8.260;2022-09-09T01:43:47;19.70;26.90
32895;DHT22;19251;49.484;8.260;2022-09-09T01:48:51;19.60;27.00
32895;DHT22;19251;49.484;8.260;2022-09-09T01:53:54;19.60;27.10
32895;DHT22;19251;49.484;8.260;2022-09-09T02:09:40;19.70;27.20
32895;DHT22;19251;49.484;8.260;2022-09-09T02:14:50;19.60;27.20
32895;DHT22;19251;49.484;8.260;2022-09-09T02:20:18;19.70;27.40
32895;DHT22;19251;49.484;8.260;2022-09-09T02:25:25;19.70;27.30
32895;DHT22;19251;49.484;8.260;2022-09-09T02:30:32;19.70;27.20
32895;DHT22;19251;49.484;8.260;2022-09-09T02:35:37;19.70;27.30
32895;DHT22;19251;49.484;8.260;2022-09-09T02:40:40;19.70;27.90
32895;DHT22;19251;49.484;8.260;2022-09-09T02:46:06;19.70;27.30
32895;DHT22;19251;49.484;8.260;2022-09-09T02:56:21;19.60;27.30
32895;DHT22;19251;49.484;8.260;2022-09-09T03:01:25;19.60;27.30
32895;DHT22;19251;49.484;8.260;2022-09-09T03:06:27;19.60;27.40
32895;DHT22;19251;49.484;8.260;2022-09-09T03:11:31;19.60;27.60
32895;DHT22;19251;49.484;8.260;2022-09-09T03:16:34;19.50;27.60
32895;DHT22;19251;49.484;8.260;2022-09-09T03:21:36;19.50;27.80
32895;DHT22;19251;49.484;8.260;2022-09-09T03:26:41;19.40;28.30
32895;DHT22;19251;49.484;8.260;2022-09-09T03:31:47;19.40;28.10
32895;DHT22;19251;49.484;8.260;2022-09-09T03:36:50;19.70;29.20
32895;DHT22;19251;49.484;8.260;2022-09-09T03:41:53;19.30;28.40
32895;DHT22;19251;49.484;8.260;2022-09-09T03:46:56;19.30;28.40
32895;DHT22;19251;49.484;8.260;2022-09-09T03:51:58;19.20;28.90
32895;DHT22;19251;49.484;8.260;2022-09-09T03:57:01;19.20;29.40
32895;DHT22;19251;49.484;8.260;2022-09-09T04:02:04;19.20;28.90
32895;DHT22;19251;49.484;8.260;2022-09-09T04:07:06;19.10;29.00
32895;DHT22;19251;49.484;8.260;2022-09-09T04:12:09;19.20;29.10
32895;DHT22;19251;49.484;8.260;2022-09-09T04:17:13;19.20;29.20
32895;DHT22;19251;49.484;8.260;2022-09-09T04:27:18;19.20;29.30
32895;DHT22;19251;49.484;8.260;2022-09-09T04:32:20;19.30;29.70
32895;DHT22;19251;49.484;8.260;2022-09-09T04:37:23;19.10;29.60
32895;DHT22;19251;49.484;8.260;2022-09-09T04:42:27;19.10;29.90
32895;DHT22;19251;49.484;8.260;2022-09-09T04:47:29;19.00;29.70
32895;DHT22;19251;49.484;8.260;2022-09-09T04:52:34;19.10;30.40
32895;DHT22;19251;49.484;8.260;2022-09-09T04:57:37;19.10;29.80
32895;DHT22;19251;49.484;8.260;2022-09-09T05:02:39;19.00;29.70
32895;DHT22;19251;49.484;8.260;2022-09-09T05:07:43;19.10;29.80
32895;DHT22;19251;49.484;8.260;2022-09-09T05:12:52;19.00;29.90
32895;DHT22;19251;49.484;8.260;2022-09-09T05:17:59;19.00;29.70
32895;DHT22;19251;49.484;8.260;2022-09-09T05:23:03;19.00;29.80
32895;DHT22;19251;49.484;8.260;2022-09-09T05:28:05;19.00;29.90
32895;DHT22;19251;49.484;8.260;2022-09-09T05:33:09;19.00;29.70
32895;DHT22;19251;49.484;8.260;2022-09-09T05:38:12;19.00;30.50
32895;DHT22;19251;49.484;8.260;2022-09-09T05:43:14;19.00;29.70
32895;DHT22;19251;49.484;8.260;2022-09-09T05:48:16;19.00;29.60
32895;DHT22;19251;49.484;8.260;2022-09-09T05:53:20;19.00;29.60
32895;DHT22;19251;49.484;8.260;2022-09-09T05:58:22;19.00;29.70
32895;DHT22;19251;49.484;8.260;2022-09-09T06:03:26;19.20;29.80
32895;DHT22;19251;49.484;8.260;2022-09-09T06:08:28;19.20;29.80
32895;DHT22;19251;49.484;8.260;2022-09-09T06:13:31;19.40;30.00
32895;DHT22;19251;49.484;8.260;2022-09-09T06:18:33;19.40;29.90
32895;DHT22;19251;49.484;8.260;2022-09-09T06:23:35;19.70;29.70
32895;DHT22;19251;49.484;8.260;2022-09-09T06:28:38;19.70;29.60
32895;DHT22;19251;49.484;8.260;2022-09-09T06:33:41;20.00;29.40
32895;DHT22;19251;49.484;8.260;2022-09-09T06:38:45;20.00;29.30
32895;DHT22;19251;49.484;8.260;2022-09-09T06:43:48;20.20;29.80
32895;DHT22;19251;49.484;8.260;2022-09-09T06:48:51;20.70;29.10
32895;DHT22;19251;49.484;8.260;2022-09-09T06:53:56;20.80;28.70
32895;DHT22;19251;49.484;8.260;2022-09-09T06:59:02;20.90;28.20
32895;DHT22;19251;49.484;8.260;2022-09-09T07:04:06;21.00;28.30
32895;DHT22;19251;49.484;8.260;2022-09-09T07:09:12;21.30;28.10
32895;DHT22;19251;49.484;8.260;2022-09-09T07:14:16;21.40;27.60
32895;DHT22;19251;49.484;8.260;2022-09-09T07:19:19;21.50;27.30
32895;DHT22;19251;49.484;8.260;2022-09-09T07:24:22;21.60;26.30
32895;DHT22;19251;49.484;8.260;2022-09-09T07:29:25;21.60;26.50
32895;DHT22;19251;49.484;8.260;2022-09-09T07:34:27;21.50;26.10
32895;DHT22;19251;49.484;8.260;2022-09-09T07:39:30;21.50;25.90
32895;DHT22;19251;49.484;8.260;2022-09-09T07:44:32;21.50;25.90
32895;DHT22;19251;49.484;8.260;2022-09-09T07:49:37;21.60;26.30
32895;DHT22;19251;49.484;8.260;2022-09-09T07:54:40;21.70;26.10
32895;DHT22;19251;49.484;8.260;2022-09-09T07:59:44;21.80;26.20
32895;DHT22;19251;49.484;8.260;2022-09-09T08:04:47;21.80;26.20
32895;DHT22;19251;49.484;8.260;2022-09-09T08:09:49;21.90;26.40
32895;DHT22;19251;49.484;8.260;2022-09-09T08:14:52;22.00;26.60
32895;DHT22;19251;49.484;8.260;2022-09-09T08:19:57;22.10;26.60
32895;DHT22;19251;49.484;8.260;2022-09-09T08:25:03;22.10;26.30
32895;DHT22;19251;49.484;8.260;2022-09-09T08:30:10;22.10;26.00
32895;DHT22;19251;49.484;8.260;2022-09-09T08:35:15;22.10;26.60
32895;DHT22;19251;49.484;8.260;2022-09-09T08:40:25;22.00;26.40
32895;DHT22;19251;49.484;8.260;2022-09-09T08:45:34;22.30;26.40
32895;DHT22;19251;49.484;8.260;2022-09-09T08:50:40;22.70;26.50
32895;DHT22;19251;49.484;8.260;2022-09-09T08:55:54;22.90;25.80
32895;DHT22;19251;49.484;8.260;2022-09-09T09:11:51;23.80;24.30
32895;DHT22;19251;49.484;8.260;2022-09-09T09:16:58;23.90;23.50
32895;DHT22;19251;49.484;8.260;2022-09-09T09:27:39;24.10;23.20
32895;DHT22;19251;49.484;8.260;2022-09-09T09:32:51;24.30;23.10
32895;DHT22;19251;49.484;8.260;2022-09-09T09:37:55;24.50;23.10
32895;DHT22;19251;49.484;8.260;2022-09-09T09:43:21;24.80;21.50
32895;DHT22;19251;49.484;8.260;2022-09-09T09:48:27;24.80;21.10
32895;DHT22;19251;49.484;8.260;2022-09-09T09:53:32;24.80;19.50
32895;DHT22;19251;49.484;8.260;2022-09-09T10:04:12;24.60;18.90
32895;DHT22;19251;49.484;8.260;2022-09-09T10:09:23;24.70;18.90
32895;DHT22;19251;49.484;8.260;2022-09-09T10:25:43;25.10;18.50
32895;DHT22;19251;49.484;8.260;2022-09-09T10:31:16;25.40;17.40
32895;DHT22;19251;49.484;8.260;2022-09-09T10:36:23;25.60;17.70
32895;DHT22;19251;49.484;8.260;2022-09-09T10:42:04;26.00;16.70
32895;DHT22;19251;49.484;8.260;2022-09-09T10:47:28;26.20;16.70
32895;DHT22;19251;49.484;8.260;2022-09-09T10:58:01;26.30;15.50
32895;DHT22;19251;49.484;8.260;2022-09-09T11:03:04;26.30;14.50
32895;DHT22;19251;49.484;8.260;2022-09-09T11:08:20;26.30;14.20
32895;DHT22;19251;49.484;8.260;2022-09-09T11:18:46;26.10;13.80
32895;DHT22;19251;49.484;8.260;2022-09-09T11:24:13;26.00;13.50
32895;DHT22;19251;49.484;8.260;2022-09-09T11:40:26;25.20;15.10
32895;DHT22;19251;49.484;8.260;2022-09-09T11:45:29;24.60;16.80
32895;DHT22;19251;49.484;8.260;2022-09-09T11:50:37;24.00;18.80
32895;DHT22;19251;49.484;8.260;2022-09-09T11:55:39;23.80;20.00
32895;DHT22;19251;49.484;8.260;2022-09-09T12:00:44;23.60;20.20
32895;DHT22;19251;49.484;8.260;2022-09-09T12:05:47;23.80;21.30
32895;DHT22;19251;49.484;8.260;2022-09-09T12:10:58;23.40;21.30
32895;DHT22;19251;49.484;8.260;2022-09-09T12:16:01;23.60;21.50
32895;DHT22;19251;49.484;8.260;2022-09-09T12:21:26;24.10;21.50
32895;DHT22;19251;49.484;8.260;2022-09-09T12:32:24;25.30;20.10
32895;DHT22;19251;49.484;8.260;2022-09-09T12:37:39;25.30;19.60
32895;DHT22;19251;49.484;8.260;2022-09-09T12:42:42;25.90;18.50
32895;DHT22;19251;49.484;8.260;2022-09-09T12:47:49;25.80;18.40
32895;DHT22;19251;49.484;8.260;2022-09-09T12:52:55;26.20;17.90
32895;DHT22;19251;49.484;8.260;2022-09-09T12:58:00;26.30;17.20
32895;DHT22;19251;49.484;8.260;2022-09-09T13:03:18;26.30;17.50
32895;DHT22;19251;49.484;8.260;2022-09-09T13:08:20;26.70;17.00
32895;DHT22;19251;49.484;8.260;2022-09-09T13:13:28;27.00;15.60
32895;DHT22;19251;49.484;8.260;2022-09-09T13:18:34;27.40;15.20
32895;DHT22;19251;49.484;8.260;2022-09-09T13:23:37;27.80;15.90
32895;DHT22;19251;49.484;8.260;2022-09-09T13:28:40;27.90;15.70
32895;DHT22;19251;49.484;8.260;2022-09-09T13:33:42;28.70;12.70
32895;DHT22;19251;49.484;8.260;2022-09-09T13:38:58;28.90;12.60
32895;DHT22;19251;49.484;8.260;2022-09-09T13:44:02;29.30;11.30
32895;DHT22;19251;49.484;8.260;2022-09-09T13:54:15;30.50;8.40
32895;DHT22;19251;49.484;8.260;2022-09-09T13:59:19;31.30;7.10
32895;DHT22;19251;49.484;8.260;2022-09-09T14:04:39;31.70;7.40
32895;DHT22;19251;49.484;8.260;2022-09-09T14:09:43;31.90;6.10
32895;DHT22;19251;49.484;8.260;2022-09-09T14:14:45;32.00;4.90
32895;DHT22;19251;49.484;8.260;2022-09-09T14:19:48;31.70;4.90
32895;DHT22;19251;49.484;8.260;2022-09-09T14:29:52;31.70;3.60
32895;DHT22;19251;49.484;8.260;2022-09-09T14:34:55;31.50;3.50
32895;DHT22;19251;49.484;8.260;2022-09-09T14:39:58;31.10;3.50
32895;DHT22;19251;49.484;8.260;2022-09-09T14:45:00;30.90;4.30
32895;DHT22;19251;49.484;8.260;2022-09-09T14:50:03;29.50;4.40
32895;DHT22;19251;49.484;8.260;2022-09-09T14:55:07;29.40;4.10
32895;DHT22;19251;49.484;8.260;2022-09-09T15:00:10;28.60;4.80
32895;DHT22;19251;49.484;8.260;2022-09-09T15:05:14;27.80;5.70
32895;DHT22;19251;49.484;8.260;2022-09-09T15:10:17;27.10;6.10
32895;DHT22;19251;49.484;8.260;2022-09-09T15:15:19;26.50;6.90
32895;DHT22;19251;49.484;8.260;2022-09-09T15:20:21;25.80;8.10
32895;DHT22;19251;49.484;8.260;2022-09-09T15:25:23;25.30;9.00
32895;DHT22;19251;49.484;8.260;2022-09-09T15:30:25;25.10;10.00
32895;DHT22;19251;49.484;8.260;2022-09-09T15:35:29;24.80;11.80
32895;DHT22;19251;49.484;8.260;2022-09-09T15:40:31;25.80;14.00
32895;DHT22;19251;49.484;8.260;2022-09-09T15:45:37;27.50;11.60
32895;DHT22;19251;49.484;8.260;2022-09-09T15:50:39;29.10;9.70
32895;DHT22;19251;49.484;8.260;2022-09-09T15:55:41;30.10;9.10
32895;DHT22;19251;49.484;8.260;2022-09-09T16:00:44;30.90;6.10
32895;DHT22;19251;49.484;8.260;2022-09-09T16:05:51;30.80;5.60
32895;DHT22;19251;49.484;8.260;2022-09-09T16:10:53;30.40;4.40
32895;DHT22;19251;49.484;8.260;2022-09-09T16:15:56;29.20;5.50
32895;DHT22;19251;49.484;8.260;2022-09-09T16:20:58;28.30;6.40
32895;DHT22;19251;49.484;8.260;2022-09-09T16:26:00;27.70;7.20
32895;DHT22;19251;49.484;8.260;2022-09-09T16:31:19;27.00;8.10
32895;DHT22;19251;49.484;8.260;2022-09-09T16:36:27;26.50;8.70
32895;DHT22;19251;49.484;8.260;2022-09-09T16:41:32;26.30;9.30
32895;DHT22;19251;49.484;8.260;2022-09-09T16:46:37;25.60;10.80
32895;DHT22;19251;49.484;8.260;2022-09-09T16:51:46;25.30;11.60
32895;DHT22;19251;49.484;8.260;2022-09-09T16:56:49;25.10;12.00
32895;DHT22;19251;49.484;8.260;2022-09-09T17:01:51;25.00;12.00
32895;DHT22;19251;49.484;8.260;2022-09-09T17:06:54;24.70;13.00
32895;DHT22;19251;49.484;8.260;2022-09-09T17:11:58;24.70;13.60
32895;DHT22;19251;49.484;8.260;2022-09-09T17:17:00;24.50;13.40
32895;DHT22;19251;49.484;8.260;2022-09-09T17:22:22;24.20;13.50
32895;DHT22;19251;49.484;8.260;2022-09-09T17:27:25;24.10;16.80
32895;DHT22;19251;49.484;8.260;2022-09-09T17:32:27;23.80;15.40
32895;DHT22;19251;49.484;8.260;2022-09-09T17:37:31;23.30;15.60
32895;DHT22;19251;49.484;8.260;2022-09-09T17:42:33;22.90;16.20
32895;DHT22;19251;49.484;8.260;2022-09-09T17:47:36;22.50;16.90
32895;DHT22;19251;49.484;8.260;2022-09-09T17:52:39;22.10;17.30
32895;DHT22;19251;49.484;8.260;2022-09-09T18:03:08;21.60;18.60
32895;DHT22;19251;49.484;8.260;2022-09-09T18:08:10;21.50;20.10
32895;DHT22;19251;49.484;8.260;2022-09-09T18:13:13;21.20;19.20
32895;DHT22;19251;49.484;8.260;2022-09-09T18:18:16;21.00;20.40
32895;DHT22;19251;49.484;8.260;2022-09-09T18:23:18;21.00;20.10
32895;DHT22;19251;49.484;8.260;2022-09-09T18:28:20;20.90;21.60
32895;DHT22;19251;49.484;8.260;2022-09-09T18:33:26;20.90;20.90
32895;DHT22;19251;49.484;8.260;2022-09-09T18:38:28;20.80;21.50
32895;DHT22;19251;49.484;8.260;2022-09-09T18:43:31;20.80;22.10
32895;DHT22;19251;49.484;8.260;2022-09-09T18:48:34;20.80;21.50
32895;DHT22;19251;49.484;8.260;2022-09-09T18:53:36;20.80;22.80
32895;DHT22;19251;49.484;8.260;2022-09-09T18:58:39;20.70;21.80
32895;DHT22;19251;49.484;8.260;2022-09-09T19:03:41;20.60;22.50
32895;DHT22;19251;49.484;8.260;2022-09-09T19:08:45;20.60;22.40
32895;DHT22;19251;49.484;8.260;2022-09-09T19:13:56;20.50;23.00
32895;DHT22;19251;49.484;8.260;2022-09-09T19:19:00;20.50;23.20
32895;DHT22;19251;49.484;8.260;2022-09-09T19:24:23;20.40;23.40
32895;DHT22;19251;49.484;8.260;2022-09-09T19:29:27;20.40;23.90
32895;DHT22;19251;49.484;8.260;2022-09-09T19:34:29;20.20;24.10
32895;DHT22;19251;49.484;8.260;2022-09-09T19:44:35;20.10;24.40
32895;DHT22;19251;49.484;8.260;2022-09-09T19:54:40;20.10;24.90
32895;DHT22;19251;49.484;8.260;2022-09-09T19:59:42;20.10;24.90
32895;DHT22;19251;49.484;8.260;2022-09-09T20:04:47;20.10;25.00
32895;DHT22;19251;49.484;8.260;2022-09-09T20:09:49;20.10;25.10
32895;DHT22;19251;49.484;8.260;2022-09-09T20:14:55;20.10;25.60
32895;DHT22;19251;49.484;8.260;2022-09-09T20:19:57;20.10;25.40
32895;DHT22;19251;49.484;8.260;2022-09-09T20:25:00;20.00;25.60
32895;DHT22;19251;49.484;8.260;2022-09-09T20:30:03;20.00;25.90
32895;DHT22;19251;49.484;8.260;2022-09-09T20:35:06;20.00;25.80
32895;DHT22;19251;49.484;8.260;2022-09-09T20:40:09;19.90;26.00
32895;DHT22;19251;49.484;8.260;2022-09-09T20:45:11;19.90;26.20
32895;DHT22;19251;49.484;8.260;2022-09-09T20:50:17;19.80;26.20
32895;DHT22;19251;49.484;8.260;2022-09-09T20:55:19;19.70;27.10
32895;DHT22;19251;49.484;8.260;2022-09-09T21:00:21;19.80;26.50
32895;DHT22;19251;49.484;8.260;2022-09-09T21:05:23;19.80;26.60
32895;DHT22;19251;49.484;8.260;2022-09-09T21:10:26;19.70;26.70
32895;DHT22;19251;49.484;8.260;2022-09-09T21:15:28;19.70;26.90
32895;DHT22;19251;49.484;8.260;2022-09-09T21:25:33;19.70;27.10
32895;DHT22;19251;49.484;8.260;2022-09-09T21:30:36;19.60;27.20
32895;DHT22;19251;49.484;8.260;2022-09-09T21:35:45;19.60;27.20
32895;DHT22;19251;49.484;8.260;2022-09-09T21:45:51;19.70;27.50
32895;DHT22;19251;49.484;8.260;2022-09-09T21:56:03;19.70;27.80
32895;DHT22;19251;49.484;8.260;2022-09-09T22:01:11;19.60;27.80
32895;DHT22;19251;49.484;8.260;2022-09-09T22:06:16;19.60;27.90
32895;DHT22;19251;49.484;8.260;2022-09-09T22:11:21;19.60;28.50
32895;DHT22;19251;49.484;8.260;2022-09-09T22:16:23;19.60;28.10
32895;DHT22;19251;49.484;8.260;2022-09-09T22:21:26;19.60;28.80
32895;DHT22;19251;49.484;8.260;2022-09-09T22:26:31;19.60;28.00
32895;DHT22;19251;49.484;8.260;2022-09-09T22:31:34;19.50;28.20
32895;DHT22;19251;49.484;8.260;2022-09-09T22:36:37;19.50;28.30
32895;DHT22;19251;49.484;8.260;2022-09-09T22:41:39;19.40;28.10
32895;DHT22;19251;49.484;8.260;2022-09-09T22:46:41;19.50;28.40
32895;DHT22;19251;49.484;8.260;2022-09-09T22:51:43;19.50;28.40
32895;DHT22;19251;49.484;8.260;2022-09-09T22:56:47;19.50;28.50
32895;DHT22;19251;49.484;8.260;2022-09-09T23:01:49;19.50;28.40
32895;DHT22;19251;49.484;8.260;2022-09-09T23:06:56;19.50;28.70
32895;DHT22;19251;49.484;8.260;2022-09-09T23:11:58;19.50;28.60
32895;DHT22;19251;49.484;8.260;2022-09-09T23:17:01;19.40;29.30
32895;DHT22;19251;49.484;8.260;2022-09-09T23:27:06;19.50;28.90
32895;DHT22;19251;49.484;8.260;2022-09-09T23:32:08;19.50;28.90
32895;DHT22;19251;49.484;8.260;2022-09-09T23:37:11;19.40;29.10
32895;DHT22;19251;49.484;8.260;2022-09-09T23:42:14;19.40;29.60
32895;DHT22;19251;49.484;8.260;2022-09-09T23:47:16;19.40;29.60
32895;DHT22;19251;49.484;8.260;2022-09-09T23:52:18;19.40;29.00
32895;DHT22;19251;49.484;8.260;2022-09-09T23:57:20;19.40;29.80
